createdAt,value
2023-04-24T00:01:10.148Z,8.90
2023-04-24T00:03:38.370Z,9.10
2023-04-24T00:06:09.271Z,8.70
2023-04-24T00:08:37.474Z,9.00
2023-04-24T00:11:05.859Z,8.30
2023-04-24T00:13:33.844Z,9.10
2023-04-24T00:16:02.479Z,8.50
2023-04-24T00:18:30.387Z,8.50
2023-04-24T00:20:58.365Z,8.60
2023-04-24T00:23:26.279Z,8.70
2023-04-24T00:25:54.221Z,9.00
2023-04-24T00:28:22.149Z,9.60
2023-04-24T00:30:50.153Z,8.90
2023-04-24T00:33:18.227Z,8.20
2023-04-24T00:35:46.271Z,7.70
2023-04-24T00:38:14.425Z,8.10
2023-04-24T00:40:44.042Z,6.40
2023-04-24T00:43:13.014Z,5.60
2023-04-24T00:45:41.042Z,6.10
2023-04-24T00:48:09.298Z,5.70
2023-04-24T00:50:37.891Z,5.50
2023-04-24T00:53:05.990Z,6.40
2023-04-24T00:55:34.175Z,6.70
2023-04-24T00:58:02.071Z,6.20
2023-04-24T01:00:30.145Z,6.10
2023-04-24T01:03:00.557Z,6.40
2023-04-24T01:05:28.991Z,6.50
2023-04-24T01:07:57.874Z,6.30
2023-04-24T01:10:28.489Z,6.80
2023-04-24T01:12:56.870Z,6.80
2023-04-24T01:15:25.004Z,6.90
2023-04-24T01:17:53.040Z,6.40
2023-04-24T01:20:23.752Z,7.60
2023-04-24T01:22:51.706Z,7.60
2023-04-24T01:25:20.052Z,8.00
2023-04-24T01:27:48.077Z,7.70
2023-04-24T01:30:16.126Z,7.50
2023-04-24T01:32:47.019Z,7.50
2023-04-24T01:35:15.631Z,7.10
2023-04-24T01:37:43.786Z,5.90
2023-04-24T01:40:12.004Z,6.30
2023-04-24T01:42:42.361Z,5.70
2023-04-24T01:45:14.055Z,5.70
2023-04-24T01:47:42.910Z,6.30
2023-04-24T01:50:11.341Z,6.20
2023-04-24T01:52:40.800Z,6.30
2023-04-24T01:55:09.332Z,6.90
2023-04-24T01:57:37.615Z,7.20
2023-04-24T02:00:08.124Z,7.20
2023-04-24T02:02:44.291Z,6.70
2023-04-24T02:05:14.229Z,7.60
2023-04-24T02:07:42.268Z,6.90
2023-04-24T02:10:11.537Z,7.40
2023-04-24T02:12:43.799Z,8.30
2023-04-24T02:15:13.479Z,8.00
2023-04-24T02:17:41.701Z,8.30
2023-04-24T02:20:10.034Z,8.00
2023-04-24T02:22:40.486Z,8.10
2023-04-24T02:25:09.135Z,8.60
2023-04-24T02:27:37.156Z,7.70
2023-04-24T02:30:08.796Z,7.70
2023-04-24T02:32:37.055Z,8.10
2023-04-24T02:35:05.422Z,7.50
2023-04-24T02:37:34.087Z,7.40
2023-04-24T02:40:02.127Z,8.00
2023-04-24T02:42:30.197Z,8.90
2023-04-24T02:44:59.762Z,8.50
2023-04-24T02:47:27.965Z,8.50
2023-04-24T02:49:56.612Z,8.40
2023-04-24T02:52:24.977Z,7.30
2023-04-24T02:54:52.964Z,7.90
2023-04-24T02:57:21.129Z,8.30
2023-04-24T02:59:49.158Z,7.70
2023-04-24T03:02:17.324Z,8.30
2023-04-24T03:04:45.827Z,8.70
2023-04-24T03:07:14.072Z,8.60
2023-04-24T03:09:42.302Z,8.60
2023-04-24T03:12:10.543Z,9.10
2023-04-24T03:14:38.578Z,9.30
2023-04-24T03:17:06.632Z,9.10
2023-04-24T03:19:34.758Z,9.40
2023-04-24T03:22:07.076Z,9.30
2023-04-24T03:24:36.001Z,10.00
2023-04-24T03:27:04.407Z,10.80
2023-04-24T03:29:56.768Z,10.80
2023-04-24T03:32:33.595Z,10.50
2023-04-24T03:35:02.192Z,9.10
2023-04-24T03:37:30.623Z,8.60
2023-04-24T03:40:09.699Z,8.80
2023-04-24T03:42:39.353Z,9.20
2023-04-24T03:45:08.923Z,8.60
2023-04-24T03:47:38.389Z,9.10
2023-04-24T03:50:07.796Z,9.20
2023-04-24T03:52:36.334Z,10.40
2023-04-24T03:55:06.068Z,10.10
2023-04-24T03:57:36.217Z,10.10
2023-04-24T04:00:15.499Z,10.40
2023-04-24T04:02:44.930Z,9.70
2023-04-24T04:05:12.998Z,9.70
2023-04-24T04:07:41.093Z,9.40
2023-04-24T04:10:09.868Z,10.70
2023-04-24T04:12:39.157Z,10.70
2023-04-24T04:15:08.434Z,10.00
2023-04-24T04:17:39.303Z,9.70
2023-04-24T04:20:11.232Z,10.30
2023-04-24T04:22:42.762Z,10.80
2023-04-24T04:25:14.712Z,11.20
2023-04-24T04:27:43.412Z,10.80
2023-04-24T04:30:13.714Z,11.70
2023-04-24T04:32:57.835Z,12.00
2023-04-24T04:35:26.189Z,10.30
2023-04-24T04:37:54.664Z,9.60
2023-04-24T04:40:32.851Z,10.50
2023-04-24T04:43:04.598Z,8.80
2023-04-24T04:45:38.437Z,9.70
2023-04-24T04:48:20.592Z,10.70
2023-04-24T04:50:49.718Z,10.90
2023-04-24T04:53:18.582Z,10.90
2023-04-24T04:55:48.383Z,10.60
2023-04-24T04:58:18.124Z,11.50
2023-04-24T05:00:47.463Z,11.10
2023-04-24T05:03:24.813Z,10.80
2023-04-24T05:05:58.869Z,10.30
2023-04-24T05:08:28.066Z,11.40
2023-04-24T05:10:57.046Z,11.20
2023-04-24T05:13:38.333Z,10.60
2023-04-24T05:16:11.210Z,10.10
2023-04-24T05:18:39.976Z,11.50
2023-04-24T05:21:09.322Z,11.60
2023-04-24T05:23:38.252Z,12.30
2023-04-24T05:26:07.730Z,11.50
2023-04-24T05:28:38.151Z,10.60
2023-04-24T05:31:10.695Z,10.00
2023-04-24T05:33:39.387Z,9.10
2023-04-24T05:36:08.402Z,9.70
2023-04-24T05:38:36.768Z,9.80
2023-04-24T05:41:04.873Z,9.10
2023-04-24T05:43:33.246Z,8.60
2023-04-24T05:46:01.656Z,9.20
2023-04-24T05:48:29.750Z,9.10
2023-04-24T05:50:57.739Z,8.50
2023-04-24T05:53:26.086Z,9.10
2023-04-24T05:55:55.239Z,9.20
2023-04-24T05:58:23.796Z,9.30
2023-04-24T06:00:53.123Z,9.40
2023-04-24T06:03:21.901Z,9.00
2023-04-24T06:05:52.480Z,8.70
2023-04-24T06:08:21.083Z,9.10
2023-04-24T06:10:49.588Z,9.70
2023-04-24T06:13:19.027Z,8.10
2023-04-24T06:16:02.804Z,7.80
2023-04-24T06:18:36.713Z,8.10
2023-04-24T06:21:05.407Z,7.70
2023-04-24T06:23:34.127Z,8.40
2023-04-24T06:26:02.568Z,7.60
2023-04-24T06:28:30.951Z,7.90
2023-04-24T06:31:00.103Z,6.80
2023-04-24T06:33:28.408Z,7.20
2023-04-24T06:35:56.895Z,7.80
2023-04-24T06:38:25.363Z,7.70
2023-04-24T06:40:53.613Z,6.90
2023-04-24T06:43:22.166Z,6.60
2023-04-24T06:45:51.172Z,7.10
2023-04-24T06:48:19.380Z,7.90
2023-04-24T06:50:48.148Z,6.80
2023-04-24T06:53:16.787Z,6.10
2023-04-24T06:55:47.213Z,7.10
2023-04-24T06:58:16.353Z,6.40
2023-04-24T07:00:44.585Z,5.70
2023-04-24T07:03:12.934Z,6.50
2023-04-24T07:05:41.392Z,6.20
2023-04-24T07:08:12.601Z,6.30
2023-04-24T07:10:40.734Z,4.90
2023-04-24T07:13:09.563Z,5.90
2023-04-24T07:15:37.867Z,5.90
2023-04-24T07:18:06.553Z,5.00
2023-04-24T07:20:35.417Z,6.10
2023-04-24T07:23:04.060Z,5.70
2023-04-24T07:25:33.113Z,5.20
2023-04-24T07:28:01.663Z,6.30
2023-04-24T07:30:30.325Z,5.60
2023-04-24T07:32:58.622Z,5.30
2023-04-24T07:35:28.108Z,6.00
2023-04-24T07:37:56.477Z,4.30
2023-04-24T07:40:25.049Z,5.40
2023-04-24T07:42:53.416Z,7.00
2023-04-24T07:45:21.800Z,5.90
2023-04-24T07:47:51.951Z,6.10
2023-04-24T07:50:20.280Z,6.70
2023-04-24T07:52:48.939Z,6.30
2023-04-24T07:55:17.425Z,5.40
2023-04-24T07:57:45.767Z,5.60
2023-04-24T08:00:14.720Z,5.80
2023-04-24T08:02:43.258Z,5.00
2023-04-24T08:05:11.968Z,6.00
2023-04-24T08:07:40.790Z,4.70
2023-04-24T08:10:11.202Z,4.70
2023-04-24T08:12:39.461Z,4.90
2023-04-24T08:15:09.135Z,5.90
2023-04-24T08:17:37.973Z,5.80
2023-04-24T08:20:11.344Z,4.70
2023-04-24T08:22:41.596Z,5.20
2023-04-24T08:25:12.078Z,4.90
2023-04-24T08:27:40.747Z,4.70
2023-04-24T08:30:09.484Z,4.70
2023-04-24T08:32:39.570Z,4.40
2023-04-24T08:35:11.776Z,4.20
2023-04-24T08:37:42.151Z,4.60
2023-04-24T08:40:16.095Z,4.60
2023-04-24T08:42:45.535Z,4.60
2023-04-24T08:45:14.281Z,4.60
2023-04-24T08:47:43.789Z,4.50
2023-04-24T08:50:13.730Z,4.50
2023-04-24T08:52:43.969Z,5.00
2023-04-24T08:55:13.137Z,4.30
2023-04-24T08:57:42.051Z,3.70
2023-04-24T09:00:12.184Z,4.10
2023-04-24T09:02:44.871Z,4.00
2023-04-24T09:05:14.643Z,4.00
2023-04-24T09:07:47.513Z,3.70
2023-04-24T09:10:17.625Z,4.00
2023-04-24T09:12:46.456Z,4.50
2023-04-24T09:15:15.569Z,3.30
2023-04-24T09:17:45.224Z,3.90
2023-04-24T09:20:13.875Z,4.50
2023-04-24T09:22:44.112Z,4.20
2023-04-24T09:25:13.799Z,4.60
2023-04-24T09:27:46.039Z,4.70
2023-04-24T09:30:15.417Z,4.60
2023-04-24T09:32:44.308Z,4.30
2023-04-24T09:35:15.532Z,3.80
2023-04-24T09:37:48.418Z,5.20
2023-04-24T09:40:20.076Z,4.70
2023-04-24T09:43:02.110Z,3.30
2023-04-24T09:45:37.834Z,4.10
2023-04-24T09:48:07.557Z,4.80
2023-04-24T09:50:36.072Z,4.70
2023-04-24T09:53:06.991Z,4.70
2023-04-24T09:55:41.210Z,4.30
2023-04-24T09:58:10.722Z,4.70
2023-04-24T10:00:39.426Z,4.20
2023-04-24T10:03:09.587Z,4.90
2023-04-24T10:05:40.055Z,4.70
2023-04-24T10:08:12.743Z,4.60
2023-04-24T10:10:43.494Z,4.50
2023-04-24T10:13:18.588Z,4.70
2023-04-24T10:15:49.813Z,3.60
2023-04-24T10:18:20.186Z,4.50
2023-04-24T10:20:50.254Z,4.90
2023-04-24T10:23:20.627Z,4.30
2023-04-24T10:25:51.262Z,4.30
2023-04-24T10:28:20.634Z,5.70
2023-04-24T10:30:51.018Z,4.30
2023-04-24T10:33:19.761Z,3.50
2023-04-24T10:35:52.490Z,4.40
2023-04-24T10:38:26.189Z,4.60
2023-04-24T10:41:20.738Z,3.60
2023-04-24T10:43:52.337Z,4.00
2023-04-24T10:46:22.781Z,4.60
2023-04-24T10:48:56.482Z,5.10
2023-04-24T10:51:27.309Z,4.30
2023-04-24T10:53:59.035Z,4.90
2023-04-24T10:56:27.822Z,4.90
2023-04-24T10:58:56.374Z,4.10
2023-04-24T11:01:31.428Z,3.80
2023-04-24T11:04:04.123Z,3.90
2023-04-24T11:06:36.223Z,4.40
2023-04-24T11:09:14.934Z,3.80
2023-04-24T11:11:47.899Z,4.00
2023-04-24T11:14:17.542Z,4.90
2023-04-24T11:16:53.532Z,4.30
2023-04-24T11:19:27.681Z,4.30
2023-04-24T11:22:05.093Z,4.50
2023-04-24T11:24:48.728Z,3.70
2023-04-24T11:27:21.969Z,4.40
2023-04-24T11:30:03.236Z,3.80
2023-04-24T11:32:35.208Z,4.10
2023-04-24T11:35:08.758Z,3.70
2023-04-24T11:37:39.672Z,4.00
2023-04-24T11:40:21.413Z,3.80
2023-04-24T11:42:51.767Z,4.30
2023-04-24T11:45:25.290Z,3.60
2023-04-24T11:47:54.164Z,3.80
2023-04-24T11:50:26.919Z,3.80
2023-04-24T11:52:56.806Z,4.00
2023-04-24T11:55:28.008Z,3.90
2023-04-24T11:57:59.408Z,3.60
2023-04-24T12:00:34.811Z,3.60
2023-04-24T12:03:13.907Z,3.90
2023-04-24T12:05:42.685Z,4.30
2023-04-24T12:08:11.276Z,4.40
2023-04-24T12:10:39.532Z,3.90
2023-04-24T12:13:11.349Z,3.50
2023-04-24T12:15:41.774Z,4.00
2023-04-24T12:18:14.459Z,3.90
2023-04-24T12:20:43.065Z,3.80
2023-04-24T12:23:11.657Z,4.00
2023-04-24T12:25:40.593Z,4.00
2023-04-24T12:28:13.892Z,4.10
2023-04-24T12:30:46.110Z,4.60
2023-04-24T12:33:20.280Z,4.30
2023-04-24T12:35:52.535Z,4.30
2023-04-24T12:38:25.516Z,4.10
2023-04-24T12:41:06.073Z,5.30
2023-04-24T12:43:37.888Z,4.80
2023-04-24T12:46:06.552Z,5.00
2023-04-24T12:48:35.308Z,5.50
2023-04-24T12:51:03.664Z,5.50
2023-04-24T12:53:32.446Z,6.10
2023-04-24T12:56:00.897Z,6.90
2023-04-24T12:58:30.563Z,6.10
2023-04-24T13:00:59.903Z,5.10
2023-04-24T13:03:29.037Z,5.10
2023-04-24T13:05:57.679Z,6.00
2023-04-24T13:08:25.972Z,7.00
2023-04-24T13:10:55.180Z,7.20
2023-04-24T13:13:24.438Z,6.10
2023-04-24T13:15:53.451Z,5.90
2023-04-24T13:18:22.639Z,7.00
2023-04-24T13:20:52.340Z,6.70
2023-04-24T13:23:21.295Z,5.80
2023-04-24T13:25:49.830Z,5.10
2023-04-24T13:28:18.331Z,6.90
2023-04-24T13:30:47.444Z,6.90
2023-04-24T13:33:15.916Z,6.60
2023-04-24T13:35:44.242Z,6.60
2023-04-24T13:38:13.286Z,6.90
2023-04-24T13:40:42.029Z,7.50
2023-04-24T13:43:10.485Z,7.70
2023-04-24T13:45:39.109Z,7.20
2023-04-24T13:48:07.264Z,6.10
2023-04-24T13:50:35.555Z,5.40
2023-04-24T13:53:04.699Z,6.00
2023-04-24T13:55:32.973Z,6.20
2023-04-24T13:58:02.698Z,5.70
2023-04-24T14:00:32.409Z,6.10
2023-04-24T14:03:01.177Z,6.30
2023-04-24T14:05:29.650Z,7.30
2023-04-24T14:07:58.137Z,7.00
2023-04-24T14:10:27.058Z,7.40
2023-04-24T14:12:55.354Z,6.40
2023-04-24T14:15:23.991Z,7.60
2023-04-24T14:17:52.664Z,6.60
2023-04-24T14:20:22.134Z,7.70
2023-04-24T14:22:50.824Z,7.50
2023-04-24T14:25:19.694Z,6.80
2023-04-24T14:27:49.053Z,7.20
2023-04-24T14:30:18.009Z,7.50
2023-04-24T14:32:46.689Z,7.70
2023-04-24T14:35:15.828Z,8.80
2023-04-24T14:37:44.469Z,9.00
2023-04-24T14:40:29.845Z,9.70
2023-04-24T14:43:01.515Z,10.30
2023-04-24T14:45:30.432Z,10.10
2023-04-24T14:48:00.658Z,9.80
2023-04-24T14:50:31.670Z,8.80
2023-04-24T14:53:00.861Z,7.90
2023-04-24T14:55:30.060Z,7.50
2023-04-24T14:57:58.685Z,6.70
2023-04-24T15:00:27.140Z,6.50
2023-04-24T15:02:56.621Z,7.30
2023-04-24T15:05:26.616Z,8.30
2023-04-24T15:07:55.292Z,7.50
2023-04-24T15:10:25.044Z,8.00
2023-04-24T15:12:53.483Z,8.30
2023-04-24T15:15:21.832Z,9.00
2023-04-24T15:17:50.114Z,9.30
2023-04-24T15:20:19.359Z,9.60
2023-04-24T15:22:47.834Z,9.10
2023-04-24T15:25:16.141Z,8.40
2023-04-24T15:27:46.100Z,8.00
2023-04-24T15:30:15.614Z,7.00
2023-04-24T15:32:44.155Z,7.70
2023-04-24T15:35:12.282Z,6.90
2023-04-24T15:37:40.347Z,7.20
2023-04-24T15:40:09.599Z,6.80
2023-04-24T15:42:37.919Z,8.80
2023-04-24T15:45:06.864Z,8.40
2023-04-24T15:47:35.195Z,7.90
2023-04-24T15:50:05.625Z,9.10
2023-04-24T15:52:33.975Z,8.30
2023-04-24T15:55:06.122Z,8.80
2023-04-24T15:57:34.367Z,9.00
2023-04-24T16:00:04.594Z,8.70
2023-04-24T16:02:40.509Z,9.00
2023-04-24T16:05:09.861Z,8.80
2023-04-24T16:07:39.103Z,8.30
2023-04-24T16:10:07.756Z,8.00
2023-04-24T16:12:35.976Z,7.60
2023-04-24T16:15:04.572Z,7.30
2023-04-24T16:17:33.049Z,7.00
2023-04-24T16:20:01.684Z,8.30
2023-04-24T16:22:30.121Z,8.30
2023-04-24T16:24:58.811Z,8.10
2023-04-24T16:27:26.962Z,8.70
2023-04-24T16:29:56.587Z,7.60
2023-04-24T16:32:25.664Z,7.60
2023-04-24T16:34:53.977Z,8.90
2023-04-24T16:37:22.343Z,9.40
2023-04-24T16:39:50.605Z,9.10
2023-04-24T16:42:18.447Z,9.00
2023-04-24T16:44:47.293Z,7.80
2023-04-24T16:47:15.449Z,8.50
2023-04-24T16:49:43.673Z,7.10
2023-04-24T16:52:12.564Z,8.90
2023-04-24T16:54:41.001Z,9.40
2023-04-24T16:57:09.842Z,9.70
2023-04-24T16:59:38.742Z,9.10
2023-04-24T17:02:06.991Z,9.00
2023-04-24T17:04:38.385Z,9.60
2023-04-24T17:07:08.706Z,9.80
2023-04-24T17:09:38.166Z,10.40
2023-04-24T17:12:06.918Z,10.90
2023-04-24T17:14:35.161Z,10.80
2023-04-24T17:17:04.218Z,9.40
2023-04-24T17:19:32.163Z,8.20
2023-04-24T17:22:00.379Z,9.40
2023-04-24T17:24:34.386Z,8.40
2023-04-24T17:27:13.828Z,8.40
2023-04-24T17:29:43.383Z,8.70
2023-04-24T17:32:11.704Z,9.40
2023-04-24T17:34:40.014Z,9.80
2023-04-24T17:37:08.128Z,10.60
2023-04-24T17:39:36.517Z,11.90
2023-04-24T17:42:04.603Z,11.10
2023-04-24T17:44:32.814Z,13.60
2023-04-24T17:47:01.044Z,14.30
2023-04-24T17:49:29.021Z,14.00
2023-04-24T17:51:57.020Z,15.20
2023-04-24T17:54:25.184Z,14.60
2023-04-24T17:56:53.206Z,12.90
2023-04-24T17:59:23.558Z,13.30
2023-04-24T18:01:53.186Z,12.40
2023-04-24T18:04:21.711Z,13.10
2023-04-24T18:06:50.390Z,14.30
2023-04-24T18:09:21.119Z,16.10
2023-04-24T18:11:50.265Z,15.80
2023-04-24T18:14:18.354Z,16.30
2023-04-24T18:16:47.151Z,15.80
2023-04-24T18:19:15.508Z,15.40
2023-04-24T18:21:43.802Z,14.50
2023-04-24T18:24:12.772Z,15.00
2023-04-24T18:26:41.030Z,14.40
2023-04-24T18:29:09.079Z,14.00
2023-04-24T18:31:37.351Z,13.50
2023-04-24T18:34:06.908Z,13.50
2023-04-24T18:36:36.878Z,12.90
2023-04-24T18:39:05.067Z,13.10
2023-04-24T18:41:35.393Z,13.20
2023-04-24T18:44:03.784Z,13.10
2023-04-24T18:46:38.345Z,13.40
2023-04-24T18:49:07.798Z,12.90
2023-04-24T18:51:46.594Z,13.00
2023-04-24T18:54:19.416Z,14.00
2023-04-24T18:56:47.539Z,13.50
2023-04-24T18:59:15.679Z,14.50
2023-04-24T19:01:43.867Z,21.60
2023-04-24T19:04:12.888Z,24.70
2023-04-24T19:06:41.235Z,24.50
2023-04-24T19:09:09.397Z,24.20
2023-04-24T19:11:38.030Z,25.00
2023-04-24T19:14:07.628Z,24.50
2023-04-24T19:16:37.717Z,24.10
2023-04-24T19:19:06.016Z,23.60
2023-04-24T19:21:35.328Z,18.40
2023-04-24T19:24:05.148Z,18.60
2023-04-24T19:26:33.865Z,18.20
2023-04-24T19:29:03.890Z,17.50
2023-04-24T19:31:32.069Z,17.40
2023-04-24T19:34:00.756Z,15.90
2023-04-24T19:36:30.311Z,17.30
2023-04-24T19:38:58.490Z,16.30
2023-04-24T19:41:26.544Z,16.10
2023-04-24T19:43:54.635Z,15.90
2023-04-24T19:46:23.072Z,15.80
2023-04-24T19:48:51.446Z,14.80
2023-04-24T19:51:19.806Z,15.10
2023-04-24T19:53:49.505Z,14.70
2023-04-24T19:56:17.720Z,14.60
2023-04-24T19:58:48.990Z,13.30
2023-04-24T20:01:19.768Z,13.60
2023-04-24T20:03:51.047Z,14.80
2023-04-24T20:06:20.671Z,14.60
2023-04-24T20:08:49.626Z,15.10
2023-04-24T20:11:18.014Z,15.40
2023-04-24T20:13:46.358Z,17.40
2023-04-24T20:16:15.293Z,16.80
2023-04-24T20:18:44.819Z,17.10
2023-04-24T20:21:13.675Z,16.20
2023-04-24T20:23:41.650Z,15.20
2023-04-24T20:26:11.361Z,14.90
2023-04-24T20:28:39.947Z,16.40
2023-04-24T20:31:08.411Z,15.80
2023-04-24T20:33:40.859Z,17.10
2023-04-24T20:36:11.614Z,17.40
2023-04-24T20:38:39.871Z,17.30
2023-04-24T20:41:09.237Z,18.30
2023-04-24T20:43:37.532Z,16.30
2023-04-24T20:46:07.425Z,16.00
2023-04-24T20:48:36.357Z,13.80
2023-04-24T20:51:04.497Z,13.10
2023-04-24T20:53:32.901Z,15.90
2023-04-24T20:56:00.980Z,13.20
2023-04-24T20:58:29.285Z,15.90
2023-04-24T21:00:57.557Z,17.30
2023-04-24T21:03:25.963Z,17.40
2023-04-24T21:05:55.220Z,17.60
2023-04-24T21:08:23.143Z,16.00
2023-04-24T21:10:52.517Z,15.90
2023-04-24T21:13:20.840Z,17.00
2023-04-24T21:15:48.928Z,16.50
2023-04-24T21:18:17.055Z,15.90
2023-04-24T21:20:45.688Z,14.40
2023-04-24T21:23:13.756Z,13.70
2023-04-24T21:25:41.755Z,16.20
2023-04-24T21:28:09.975Z,15.40
2023-04-24T21:30:39.125Z,17.30
2023-04-24T21:33:07.259Z,17.00
2023-04-24T21:35:36.154Z,16.80
2023-04-24T21:38:04.175Z,18.80
2023-04-24T21:40:32.367Z,19.30
2023-04-24T21:43:00.536Z,21.10
2023-04-24T21:45:28.598Z,21.10
2023-04-24T21:47:58.543Z,19.70
2023-04-24T21:50:26.700Z,20.40
2023-04-24T21:52:54.592Z,20.10
2023-04-24T21:55:22.692Z,23.50
2023-04-24T21:57:50.661Z,23.30
2023-04-24T22:00:18.819Z,22.10
2023-04-24T22:02:47.052Z,20.70
2023-04-24T22:05:18.772Z,19.60
2023-04-24T22:07:49.800Z,21.50
2023-04-24T22:10:18.776Z,19.50
2023-04-24T22:12:47.282Z,20.70
2023-04-24T22:15:15.590Z,21.10
2023-04-24T22:17:43.764Z,20.60
2023-04-24T22:20:12.282Z,21.90
2023-04-24T22:22:40.570Z,21.00
2023-04-24T22:25:09.029Z,20.20
2023-04-24T22:27:37.191Z,17.20
2023-04-24T22:30:06.102Z,21.00
2023-04-24T22:32:34.574Z,21.70
2023-04-24T22:35:02.930Z,21.70
2023-04-24T22:37:30.971Z,22.30
2023-04-24T22:40:01.386Z,20.40
2023-04-24T22:42:29.748Z,21.60
2023-04-24T22:44:58.030Z,17.80
2023-04-24T22:47:26.521Z,18.70
2023-04-24T22:49:55.520Z,15.50
2023-04-24T22:52:23.392Z,18.70
2023-04-24T22:54:52.280Z,15.20
2023-04-24T22:57:20.463Z,15.90
2023-04-24T22:59:48.593Z,16.10
2023-04-24T23:02:17.067Z,18.10
2023-04-24T23:04:45.350Z,17.00
2023-04-24T23:07:13.330Z,16.30
2023-04-24T23:09:41.913Z,16.10
2023-04-24T23:12:09.798Z,17.70
2023-04-24T23:14:38.463Z,16.70
2023-04-24T23:17:06.421Z,13.80
2023-04-24T23:19:34.408Z,15.20
2023-04-24T23:22:02.547Z,14.10
2023-04-24T23:24:30.648Z,16.60
2023-04-24T23:26:58.630Z,16.30
2023-04-24T23:29:26.605Z,16.10
2023-04-24T23:31:54.608Z,17.00
2023-04-24T23:34:22.704Z,15.20
2023-04-24T23:36:52.703Z,14.00
2023-04-24T23:39:21.401Z,13.00
2023-04-24T23:41:49.801Z,14.20
2023-04-24T23:44:17.779Z,13.50
2023-04-24T23:46:45.832Z,14.40
2023-04-24T23:49:14.916Z,15.20
2023-04-24T23:51:43.413Z,16.10
2023-04-24T23:54:11.484Z,16.70
2023-04-24T23:56:39.568Z,18.60
2023-04-24T23:59:07.672Z,18.80
